AXB786 VECC-VGHS
Flight info
| Callsign | AXB786 |
|---|---|
| Flight time | 0h 36m |
| Altitude | 15000 |
| Route | BEMAK2E BEMAK A462 IKOGU |
| Aircraft | A320/M-SDE3FGHIRWY/LB1 |
Departure
| Time | 2026-04-20 19:43 |
|---|---|
| Airport | Netaji Subhash Chandra Bose International Airport (VECC) |
Arrival
| Time | 2026-04-20 20:19 |
|---|---|
| Airport | Hazrat Shahjalal International Airport (VGHS) |
| Time | Latitude | Longitude | Altitude | Speed | Heading |
|---|---|---|---|---|---|
| 2026-04-20 19:31 | 22.64343 | 88.44061 | 26 ft | 0 kts | 276° |
| 2026-04-20 19:33 | 22.64342 | 88.44066 | 26 ft | 4 kts | 275° |
| 2026-04-20 19:33 | 22.64341 | 88.44095 | 27 ft | 4 kts | 267° |
| 2026-04-20 19:33 | 22.64344 | 88.44124 | 27 ft | 4 kts | 253° |
| 2026-04-20 19:34 | 22.64356 | 88.44149 | 26 ft | 4 kts | 217° |
| 2026-04-20 19:34 | 22.64367 | 88.44155 | 26 ft | 0 kts | 185° |
| 2026-04-20 19:37 | 22.64320 | 88.44151 | 24 ft | 15 kts | 185° |
| 2026-04-20 19:37 | 22.64226 | 88.44140 | 23 ft | 10 kts | 186° |
| 2026-04-20 19:37 | 22.64165 | 88.44132 | 23 ft | 8 kts | 187° |
| 2026-04-20 19:37 | 22.64117 | 88.44126 | 23 ft | 6 kts | 186° |
| 2026-04-20 19:38 | 22.64075 | 88.44121 | 23 ft | 6 kts | 186° |
| 2026-04-20 19:38 | 22.64036 | 88.44124 | 25 ft | 6 kts | 159° |
| 2026-04-20 19:38 | 22.64010 | 88.44211 | 25 ft | 17 kts | 94° |
| 2026-04-20 19:38 | 22.64017 | 88.44332 | 25 ft | 15 kts | 74° |
| 2026-04-20 19:39 | 22.64079 | 88.44411 | 27 ft | 16 kts | 9° |
| 2026-04-20 19:39 | 22.64211 | 88.44426 | 27 ft | 22 kts | 7° |
| 2026-04-20 19:39 | 22.64258 | 88.44433 | 29 ft | 1 kts | 7° |
| 2026-04-20 19:39 | 22.64289 | 88.44437 | 28 ft | 8 kts | 7° |
| 2026-04-20 19:40 | 22.64403 | 88.44449 | 25 ft | 24 kts | 6° |
| 2026-04-20 19:40 | 22.64612 | 88.44473 | 24 ft | 33 kts | 6° |
| 2026-04-20 19:40 | 22.64752 | 88.44552 | 23 ft | 22 kts | 35° |
| 2026-04-20 19:40 | 22.64874 | 88.44640 | 24 ft | 20 kts | 34° |
| 2026-04-20 19:41 | 22.64983 | 88.44714 | 24 ft | 17 kts | 32° |
| 2026-04-20 19:41 | 22.65042 | 88.44733 | 26 ft | 0 kts | 6° |
| 2026-04-20 19:42 | 22.65140 | 88.44744 | 28 ft | 47 kts | 6° |
| 2026-04-20 19:42 | 22.65701 | 88.44808 | 31 ft | 112 kts | 6° |
| 2026-04-20 19:42 | 22.66654 | 88.44914 | 27 ft | 161 kts | 6° |
| 2026-04-20 19:43 | 22.67763 | 88.45026 | 750 ft | 151 kts | 1° |
| 2026-04-20 19:43 | 22.68858 | 88.45213 | 1200 ft | 174 kts | 17° |
| 2026-04-20 19:43 | 22.69893 | 88.45977 | 1861 ft | 186 kts | 49° |
| 2026-04-20 19:43 | 22.70446 | 88.47271 | 2432 ft | 196 kts | 79° |
| 2026-04-20 19:44 | 22.70704 | 88.48798 | 2780 ft | 217 kts | 78° |
| 2026-04-20 19:44 | 22.71038 | 88.50448 | 3142 ft | 238 kts | 76° |
| 2026-04-20 19:44 | 22.71439 | 88.52274 | 3743 ft | 251 kts | 75° |
| 2026-04-20 19:44 | 22.71862 | 88.54119 | 4580 ft | 254 kts | 75° |
| 2026-04-20 19:45 | 22.72298 | 88.55985 | 5393 ft | 257 kts | 75° |
| 2026-04-20 19:45 | 22.72745 | 88.57872 | 6236 ft | 260 kts | 75° |
| 2026-04-20 19:45 | 22.73199 | 88.59781 | 7028 ft | 264 kts | 75° |
| 2026-04-20 19:45 | 22.73663 | 88.61725 | 7714 ft | 274 kts | 75° |
| 2026-04-20 19:46 | 22.74156 | 88.63788 | 8288 ft | 289 kts | 75° |
| 2026-04-20 19:46 | 22.74664 | 88.65914 | 9097 ft | 294 kts | 75° |
| 2026-04-20 19:46 | 22.75173 | 88.68041 | 9919 ft | 298 kts | 75° |
| 2026-04-20 19:46 | 22.75835 | 88.70174 | 10726 ft | 301 kts | 63° |
| 2026-04-20 19:47 | 22.76983 | 88.72072 | 11515 ft | 303 kts | 47° |
| 2026-04-20 19:47 | 22.78476 | 88.73787 | 11867 ft | 325 kts | 45° |
| 2026-04-20 19:47 | 22.80100 | 88.75610 | 12110 ft | 347 kts | 45° |
| 2026-04-20 19:47 | 22.81827 | 88.77545 | 12665 ft | 356 kts | 45° |
| 2026-04-20 19:48 | 22.83534 | 88.79460 | 13341 ft | 361 kts | 45° |
| 2026-04-20 19:48 | 22.85285 | 88.81430 | 14038 ft | 365 kts | 45° |
| 2026-04-20 19:48 | 22.87053 | 88.83423 | 14691 ft | 369 kts | 45° |
| 2026-04-20 19:48 | 22.88835 | 88.85438 | 14941 ft | 370 kts | 45° |
| 2026-04-20 19:49 | 22.90637 | 88.87480 | 15005 ft | 382 kts | 45° |
| 2026-04-20 19:49 | 22.92464 | 88.89601 | 15007 ft | 387 kts | 49° |
| 2026-04-20 19:49 | 22.94032 | 88.91981 | 15010 ft | 389 kts | 56° |
| 2026-04-20 19:49 | 22.95513 | 88.94438 | 15011 ft | 389 kts | 56° |
| 2026-04-20 19:50 | 22.96996 | 88.96894 | 15011 ft | 389 kts | 56° |
| 2026-04-20 19:50 | 22.98481 | 88.99349 | 15009 ft | 389 kts | 56° |
| 2026-04-20 19:50 | 22.99966 | 89.01804 | 15008 ft | 389 kts | 56° |
| 2026-04-20 19:50 | 23.01453 | 89.04266 | 15008 ft | 389 kts | 56° |
| 2026-04-20 19:51 | 23.02936 | 89.06726 | 15010 ft | 389 kts | 56° |
| 2026-04-20 19:51 | 23.04412 | 89.09176 | 15009 ft | 389 kts | 56° |
| 2026-04-20 19:51 | 23.05895 | 89.11633 | 15011 ft | 389 kts | 56° |
| 2026-04-20 19:51 | 23.07377 | 89.14092 | 15013 ft | 389 kts | 56° |
| 2026-04-20 19:52 | 23.08859 | 89.16553 | 15014 ft | 389 kts | 56° |
| 2026-04-20 19:52 | 23.10341 | 89.19015 | 15016 ft | 389 kts | 56° |
| 2026-04-20 19:52 | 23.11824 | 89.21477 | 15018 ft | 389 kts | 56° |
| 2026-04-20 19:52 | 23.13308 | 89.23939 | 15019 ft | 390 kts | 56° |
| 2026-04-20 19:53 | 23.14793 | 89.26401 | 15021 ft | 390 kts | 56° |
| 2026-04-20 19:53 | 23.16279 | 89.28863 | 15020 ft | 390 kts | 56° |
| 2026-04-20 19:53 | 23.17762 | 89.31327 | 15021 ft | 390 kts | 56° |
| 2026-04-20 19:53 | 23.19242 | 89.33786 | 15024 ft | 390 kts | 56° |
| 2026-04-20 19:54 | 23.20721 | 89.36253 | 15023 ft | 390 kts | 56° |
| 2026-04-20 19:54 | 23.22199 | 89.38722 | 15025 ft | 390 kts | 56° |
| 2026-04-20 19:54 | 23.23678 | 89.41192 | 15023 ft | 390 kts | 56° |
| 2026-04-20 19:54 | 23.25156 | 89.43660 | 15024 ft | 389 kts | 56° |
| 2026-04-20 19:55 | 23.26634 | 89.46129 | 15024 ft | 389 kts | 56° |
| 2026-04-20 19:55 | 23.28112 | 89.48597 | 15025 ft | 389 kts | 56° |
| 2026-04-20 19:55 | 23.29591 | 89.51066 | 15024 ft | 389 kts | 56° |
| 2026-04-20 19:55 | 23.31068 | 89.53534 | 15024 ft | 389 kts | 56° |
| 2026-04-20 19:56 | 23.32047 | 89.55171 | 15024 ft | 389 kts | 56° |
| 2026-04-20 19:56 | 23.34021 | 89.58474 | 15024 ft | 389 kts | 56° |
| 2026-04-20 19:56 | 23.35476 | 89.60912 | 15024 ft | 389 kts | 56° |
| 2026-04-20 19:56 | 23.36949 | 89.63385 | 15023 ft | 389 kts | 56° |
| 2026-04-20 19:57 | 23.38422 | 89.65857 | 15023 ft | 389 kts | 56° |
| 2026-04-20 19:57 | 23.39888 | 89.68335 | 15024 ft | 389 kts | 56° |
| 2026-04-20 19:57 | 23.41349 | 89.70816 | 15025 ft | 389 kts | 56° |
| 2026-04-20 19:57 | 23.42806 | 89.73300 | 15023 ft | 389 kts | 57° |
| 2026-04-20 19:58 | 23.44260 | 89.75787 | 15023 ft | 389 kts | 57° |
| 2026-04-20 19:58 | 23.45712 | 89.78274 | 15023 ft | 389 kts | 57° |
| 2026-04-20 19:58 | 23.47165 | 89.80762 | 15023 ft | 389 kts | 57° |
| 2026-04-20 19:58 | 23.48619 | 89.83250 | 15023 ft | 389 kts | 57° |
| 2026-04-20 19:59 | 23.50074 | 89.85736 | 15024 ft | 389 kts | 57° |
| 2026-04-20 19:59 | 23.51532 | 89.88220 | 15023 ft | 389 kts | 57° |
| 2026-04-20 19:59 | 23.52989 | 89.90705 | 15023 ft | 389 kts | 56° |
| 2026-04-20 19:59 | 23.54447 | 89.93189 | 15023 ft | 389 kts | 57° |
| 2026-04-20 20:00 | 23.55901 | 89.95672 | 15023 ft | 389 kts | 57° |
| 2026-04-20 20:00 | 23.57349 | 89.98149 | 15013 ft | 382 kts | 57° |
| 2026-04-20 20:00 | 23.58760 | 90.00564 | 14560 ft | 377 kts | 57° |
| 2026-04-20 20:00 | 23.60172 | 90.02985 | 13942 ft | 378 kts | 57° |
| 2026-04-20 20:01 | 23.61575 | 90.05393 | 13402 ft | 376 kts | 57° |
| 2026-04-20 20:01 | 23.62974 | 90.07795 | 12873 ft | 373 kts | 57° |
| 2026-04-20 20:01 | 23.64357 | 90.10170 | 12340 ft | 370 kts | 57° |
| 2026-04-20 20:01 | 23.65735 | 90.12537 | 11798 ft | 367 kts | 57° |
| 2026-04-20 20:02 | 23.67088 | 90.14859 | 11029 ft | 360 kts | 57° |
| 2026-04-20 20:02 | 23.68401 | 90.17117 | 10483 ft | 343 kts | 57° |
| 2026-04-20 20:02 | 23.69635 | 90.19238 | 10339 ft | 317 kts | 57° |
| 2026-04-20 20:02 | 23.70877 | 90.21137 | 9963 ft | 301 kts | 44° |
| 2026-04-20 20:03 | 23.72519 | 90.22477 | 9358 ft | 293 kts | 24° |
| 2026-04-20 20:03 | 23.74421 | 90.23213 | 8677 ft | 289 kts | 15° |
| 2026-04-20 20:03 | 23.76339 | 90.23850 | 8002 ft | 287 kts | 15° |
| 2026-04-20 20:03 | 23.78242 | 90.24480 | 7337 ft | 284 kts | 15° |
| 2026-04-20 20:04 | 23.80127 | 90.25104 | 6675 ft | 282 kts | 15° |
| 2026-04-20 20:04 | 23.81992 | 90.25724 | 5995 ft | 279 kts | 15° |
| 2026-04-20 20:04 | 23.83840 | 90.26343 | 5315 ft | 276 kts | 15° |
| 2026-04-20 20:04 | 23.85669 | 90.26956 | 4615 ft | 275 kts | 15° |
| 2026-04-20 20:05 | 23.87498 | 90.27569 | 3885 ft | 274 kts | 15° |
| 2026-04-20 20:05 | 23.89303 | 90.28174 | 3309 ft | 267 kts | 15° |
| 2026-04-20 20:05 | 23.91015 | 90.28748 | 3098 ft | 247 kts | 15° |
| 2026-04-20 20:05 | 23.92468 | 90.29562 | 2967 ft | 229 kts | 44° |
| 2026-04-20 20:06 | 23.93172 | 90.31040 | 2865 ft | 217 kts | 83° |
| 2026-04-20 20:06 | 23.92940 | 90.32604 | 2767 ft | 207 kts | 121° |
| 2026-04-20 20:06 | 23.91976 | 90.33720 | 2766 ft | 203 kts | 146° |
| 2026-04-20 20:06 | 23.90832 | 90.34622 | 2764 ft | 202 kts | 146° |
| 2026-04-20 20:07 | 23.89689 | 90.35524 | 2760 ft | 202 kts | 146° |
| 2026-04-20 20:07 | 23.88555 | 90.36424 | 2758 ft | 201 kts | 147° |
| 2026-04-20 20:07 | 23.87422 | 90.37324 | 2758 ft | 201 kts | 146° |
| 2026-04-20 20:07 | 23.86290 | 90.38224 | 2759 ft | 201 kts | 146° |
| 2026-04-20 20:08 | 23.85071 | 90.38924 | 2748 ft | 197 kts | 174° |
| 2026-04-20 20:08 | 23.83762 | 90.38731 | 2760 ft | 190 kts | 209° |
| 2026-04-20 20:08 | 23.82656 | 90.37959 | 2759 ft | 188 kts | 225° |
| 2026-04-20 20:08 | 23.82057 | 90.36736 | 2753 ft | 186 kts | 265° |
| 2026-04-20 20:09 | 23.82305 | 90.35370 | 2766 ft | 186 kts | 294° |
| 2026-04-20 20:09 | 23.82925 | 90.34128 | 2763 ft | 187 kts | 299° |
| 2026-04-20 20:09 | 23.83599 | 90.32910 | 2760 ft | 188 kts | 300° |
| 2026-04-20 20:09 | 23.84280 | 90.31699 | 2759 ft | 187 kts | 300° |
| 2026-04-20 20:10 | 23.84966 | 90.30491 | 2758 ft | 188 kts | 300° |
| 2026-04-20 20:10 | 23.85420 | 90.29686 | 2758 ft | 188 kts | 300° |
| 2026-04-20 20:10 | 23.86110 | 90.28471 | 2760 ft | 188 kts | 300° |
| 2026-04-20 20:10 | 23.86798 | 90.27262 | 2758 ft | 187 kts | 300° |
| 2026-04-20 20:11 | 23.87719 | 90.25665 | 2758 ft | 189 kts | 306° |
| 2026-04-20 20:11 | 23.88689 | 90.24697 | 2761 ft | 190 kts | 322° |
| 2026-04-20 20:11 | 23.89423 | 90.24137 | 2760 ft | 190 kts | 323° |
| 2026-04-20 20:11 | 23.90528 | 90.23337 | 2760 ft | 190 kts | 324° |
| 2026-04-20 20:12 | 23.91989 | 90.22289 | 2758 ft | 189 kts | 324° |
| 2026-04-20 20:12 | 23.92708 | 90.21719 | 2756 ft | 188 kts | 313° |
| 2026-04-20 20:12 | 23.93513 | 90.20600 | 2758 ft | 188 kts | 309° |
| 2026-04-20 20:13 | 23.95703 | 90.19054 | 2747 ft | 193 kts | 349° |
| 2026-04-20 20:13 | 23.97010 | 90.19287 | 2760 ft | 200 kts | 27° |
| 2026-04-20 20:13 | 23.98024 | 90.20331 | 2762 ft | 204 kts | 55° |
| 2026-04-20 20:13 | 23.98530 | 90.21765 | 2756 ft | 204 kts | 85° |
| 2026-04-20 20:14 | 23.98320 | 90.23282 | 2759 ft | 204 kts | 117° |
| 2026-04-20 20:14 | 23.97490 | 90.24467 | 2780 ft | 189 kts | 136° |
| 2026-04-20 20:14 | 23.96625 | 90.25467 | 2758 ft | 174 kts | 135° |
| 2026-04-20 20:14 | 23.95834 | 90.26389 | 2758 ft | 161 kts | 135° |
| 2026-04-20 20:15 | 23.95078 | 90.27273 | 2757 ft | 156 kts | 135° |
| 2026-04-20 20:15 | 23.94337 | 90.28106 | 2822 ft | 151 kts | 139° |
| 2026-04-20 20:15 | 23.93567 | 90.28882 | 2821 ft | 150 kts | 141° |
| 2026-04-20 20:15 | 23.92799 | 90.29661 | 2692 ft | 150 kts | 139° |
| 2026-04-20 20:16 | 23.92067 | 90.30476 | 2557 ft | 150 kts | 135° |
| 2026-04-20 20:16 | 23.91399 | 90.31353 | 2488 ft | 150 kts | 129° |
| 2026-04-20 20:16 | 23.90787 | 90.32284 | 2258 ft | 152 kts | 124° |
| 2026-04-20 20:16 | 23.90311 | 90.33313 | 1977 ft | 151 kts | 114° |
| 2026-04-20 20:17 | 23.89954 | 90.34389 | 1709 ft | 151 kts | 110° |
| 2026-04-20 20:17 | 23.89534 | 90.35446 | 1353 ft | 151 kts | 125° |
| 2026-04-20 20:17 | 23.88841 | 90.36290 | 993 ft | 150 kts | 146° |
| 2026-04-20 20:17 | 23.87994 | 90.36910 | 765 ft | 144 kts | 151° |
| 2026-04-20 20:18 | 23.87176 | 90.37536 | 519 ft | 145 kts | 144° |
| 2026-04-20 20:18 | 23.86370 | 90.38173 | 315 ft | 142 kts | 147° |
| 2026-04-20 20:18 | 23.85570 | 90.38805 | 114 ft | 142 kts | 146° |
| 2026-04-20 20:18 | 23.84800 | 90.39414 | 38 ft | 124 kts | 147° |
| 2026-04-20 20:19 | 23.84244 | 90.39850 | 35 ft | 65 kts | 144° |
| 2026-04-20 20:19 | 23.84129 | 90.39956 | 36 ft | 9 kts | 133° |
| 2026-04-20 20:19 | 23.84101 | 90.39990 | 36 ft | 4 kts | 131° |
| 2026-04-20 20:19 | 23.84086 | 90.40015 | 37 ft | 8 kts | 123° |
| 2026-04-20 20:20 | 23.84044 | 90.40100 | 37 ft | 15 kts | 113° |
| 2026-04-20 20:20 | 23.84009 | 90.40188 | 36 ft | 10 kts | 112° |
| 2026-04-20 20:20 | 23.83999 | 90.40241 | 35 ft | 4 kts | 95° |
| 2026-04-20 20:20 | 23.83998 | 90.40254 | 36 ft | 0 kts | 95° |
| 2026-04-20 20:21 | 23.83996 | 90.40307 | 36 ft | 16 kts | 89° |
| 2026-04-20 20:21 | 23.84019 | 90.40405 | 35 ft | 10 kts | 64° |
| 2026-04-20 20:21 | 23.84046 | 90.40456 | 36 ft | 7 kts | 60° |
| 2026-04-20 20:21 | 23.84100 | 90.40536 | 36 ft | 12 kts | 51° |
| 2026-04-20 20:22 | 23.84162 | 90.40566 | 36 ft | 13 kts | 355° |
| 2026-04-20 20:22 | 23.84240 | 90.40524 | 36 ft | 10 kts | 334° |
| 2026-04-20 20:22 | 23.84290 | 90.40488 | 36 ft | 10 kts | 319° |
| 2026-04-20 20:22 | 23.84388 | 90.40405 | 36 ft | 21 kts | 324° |
| 2026-04-20 20:23 | 23.84510 | 90.40308 | 36 ft | 22 kts | 323° |
| 2026-04-20 20:23 | 23.84616 | 90.40237 | 36 ft | 9 kts | 356° |
| 2026-04-20 20:23 | 23.84641 | 90.40257 | 36 ft | 6 kts | 63° |
| 2026-04-20 20:23 | 23.84691 | 90.40323 | 36 ft | 12 kts | 71° |
| 2026-04-20 20:24 | 23.84696 | 90.40357 | 36 ft | 0 kts | 82° |
| 2026-04-20 20:24 | 23.84697 | 90.40365 | 36 ft | 6 kts | 79° |
| 2026-04-20 20:24 | 23.84723 | 90.40413 | 36 ft | 6 kts | 48° |
| 2026-04-20 20:24 | 23.84734 | 90.40429 | 36 ft | 0 kts | 52° |
| 2026-04-20 20:25 | 23.84735 | 90.40431 | 36 ft | 0 kts | 50° |